sensor_id;sensor_type;location;lat;lon;timestamp;pressure;altitude;pressure_sealevel;temperature;humidity
9740;BME280;4909;42.680;26.324;2024-01-06T00:01:10;98492.97;;;9.76;84.17
9740;BME280;4909;42.680;26.324;2024-01-06T00:03:40;98611.47;;;10.36;84.21
9740;BME280;4909;42.680;26.324;2024-01-06T00:06:07;98591.81;;;10.40;81.80
9740;BME280;4909;42.680;26.324;2024-01-06T00:08:34;98482.38;;;9.55;83.87
9740;BME280;4909;42.680;26.324;2024-01-06T00:11:01;98603.69;;;10.31;83.27
9740;BME280;4909;42.680;26.324;2024-01-06T00:13:29;98571.38;;;10.01;82.59
9740;BME280;4909;42.680;26.324;2024-01-06T00:15:56;98496.22;;;9.62;82.25
9740;BME280;4909;42.680;26.324;2024-01-06T00:18:24;98516.47;;;9.83;82.06
9740;BME280;4909;42.680;26.324;2024-01-06T00:20:52;98568.25;;;10.12;82.04
9740;BME280;4909;42.680;26.324;2024-01-06T00:23:20;98458.22;;;9.43;83.09
9740;BME280;4909;42.680;26.324;2024-01-06T00:25:47;98468.53;;;9.29;82.92
9740;BME280;4909;42.680;26.324;2024-01-06T00:28:14;98476.38;;;9.30;83.35
9740;BME280;4909;42.680;26.324;2024-01-06T00:30:41;98592.81;;;10.17;82.43
9740;BME280;4909;42.680;26.324;2024-01-06T00:33:08;98595.06;;;10.06;83.38
9740;BME280;4909;42.680;26.324;2024-01-06T00:35:36;98503.75;;;9.51;83.80
9740;BME280;4909;42.680;26.324;2024-01-06T00:38:04;98478.84;;;9.35;83.47
9740;BME280;4909;42.680;26.324;2024-01-06T00:40:31;98501.84;;;9.54;83.72
9740;BME280;4909;42.680;26.324;2024-01-06T00:42:59;98563.13;;;10.08;82.46
9740;BME280;4909;42.680;26.324;2024-01-06T00:45:26;98462.75;;;9.59;82.06
9740;BME280;4909;42.680;26.324;2024-01-06T00:47:53;98544.00;;;10.01;82.58
9740;BME280;4909;42.680;26.324;2024-01-06T00:50:20;98585.19;;;10.30;82.18
9740;BME280;4909;42.680;26.324;2024-01-06T00:52:47;98463.69;;;9.58;82.34
9740;BME280;4909;42.680;26.324;2024-01-06T00:55:19;98532.88;;;9.73;83.13
9740;BME280;4909;42.680;26.324;2024-01-06T00:57:46;98509.72;;;9.56;83.97
9740;BME280;4909;42.680;26.324;2024-01-06T01:00:14;98474.22;;;9.20;84.78
9740;BME280;4909;42.680;26.324;2024-01-06T01:02:41;98465.66;;;9.13;84.66
9740;BME280;4909;42.680;26.324;2024-01-06T01:05:08;98572.78;;;9.48;86.21
9740;BME280;4909;42.680;26.324;2024-01-06T01:07:36;98443.78;;;8.86;86.06
9740;BME280;4909;42.680;26.324;2024-01-06T01:10:03;98448.22;;;9.07;86.02
9740;BME280;4909;42.680;26.324;2024-01-06T01:12:33;98502.19;;;9.25;87.26
9740;BME280;4909;42.680;26.324;2024-01-06T01:15:00;98436.72;;;8.87;87.52
9740;BME280;4909;42.680;26.324;2024-01-06T01:17:27;98560.06;;;9.56;87.57
9740;BME280;4909;42.680;26.324;2024-01-06T01:19:54;98318.28;;;8.28;87.25
9740;BME280;4909;42.680;26.324;2024-01-06T01:22:21;98512.19;;;9.60;86.73
9740;BME280;4909;42.680;26.324;2024-01-06T01:24:49;98375.75;;;8.90;86.09
9740;BME280;4909;42.680;26.324;2024-01-06T01:27:16;98539.69;;;9.98;85.84
9740;BME280;4909;42.680;26.324;2024-01-06T01:29:45;98409.88;;;8.96;86.61
9740;BME280;4909;42.680;26.324;2024-01-06T01:32:13;98545.38;;;9.89;86.47
9740;BME280;4909;42.680;26.324;2024-01-06T01:34:41;98446.06;;;9.17;85.51
9740;BME280;4909;42.680;26.324;2024-01-06T01:37:08;98478.00;;;9.34;85.66
9740;BME280;4909;42.680;26.324;2024-01-06T01:39:35;98325.00;;;8.58;84.04
9740;BME280;4909;42.680;26.324;2024-01-06T01:42:02;98327.28;;;8.67;84.23
9740;BME280;4909;42.680;26.324;2024-01-06T01:44:29;98374.44;;;9.00;83.62
9740;BME280;4909;42.680;26.324;2024-01-06T01:46:58;98368.53;;;8.93;83.35
9740;BME280;4909;42.680;26.324;2024-01-06T01:49:25;98421.38;;;9.37;83.51
9740;BME280;4909;42.680;26.324;2024-01-06T01:51:54;98412.16;;;9.45;82.93
9740;BME280;4909;42.680;26.324;2024-01-06T01:54:21;98475.22;;;9.57;83.60
9740;BME280;4909;42.680;26.324;2024-01-06T01:56:48;98554.22;;;10.30;82.15
9740;BME280;4909;42.680;26.324;2024-01-06T01:59:18;98496.81;;;9.89;82.66
9740;BME280;4909;42.680;26.324;2024-01-06T02:01:45;98417.06;;;9.14;84.17
9740;BME280;4909;42.680;26.324;2024-01-06T02:04:14;98535.97;;;10.02;83.54
9740;BME280;4909;42.680;26.324;2024-01-06T02:06:41;98458.50;;;9.35;84.50
9740;BME280;4909;42.680;26.324;2024-01-06T02:09:08;98405.66;;;9.12;85.06
9740;BME280;4909;42.680;26.324;2024-01-06T02:11:36;98536.41;;;10.12;83.57
9740;BME280;4909;42.680;26.324;2024-01-06T02:14:04;98435.09;;;9.46;83.53
9740;BME280;4909;42.680;26.324;2024-01-06T02:16:31;98513.16;;;9.98;84.43
9740;BME280;4909;42.680;26.324;2024-01-06T02:18:58;98417.00;;;9.36;85.10
9740;BME280;4909;42.680;26.324;2024-01-06T02:21:28;98516.75;;;9.97;85.47
9740;BME280;4909;42.680;26.324;2024-01-06T02:23:57;98400.84;;;9.42;84.95
9740;BME280;4909;42.680;26.324;2024-01-06T02:26:24;98407.31;;;9.55;84.65
9740;BME280;4909;42.680;26.324;2024-01-06T02:28:51;98507.72;;;10.22;84.52
9740;BME280;4909;42.680;26.324;2024-01-06T02:31:18;98498.84;;;10.23;84.36
9740;BME280;4909;42.680;26.324;2024-01-06T02:33:45;98370.31;;;9.53;84.17
9740;BME280;4909;42.680;26.324;2024-01-06T02:36:12;98373.22;;;9.68;84.00
9740;BME280;4909;42.680;26.324;2024-01-06T02:38:40;98314.13;;;9.27;83.73
9740;BME280;4909;42.680;26.324;2024-01-06T02:41:09;98250.97;;;8.79;84.02
9740;BME280;4909;42.680;26.324;2024-01-06T02:43:36;98408.56;;;9.87;83.61
9740;BME280;4909;42.680;26.324;2024-01-06T02:46:03;98439.50;;;9.86;84.57
9740;BME280;4909;42.680;26.324;2024-01-06T02:48:30;98455.31;;;9.88;85.52
9740;BME280;4909;42.680;26.324;2024-01-06T02:50:58;98338.00;;;9.25;85.32
9740;BME280;4909;42.680;26.324;2024-01-06T02:53:25;98370.19;;;9.36;84.24
9740;BME280;4909;42.680;26.324;2024-01-06T02:55:52;98335.56;;;9.21;83.79
9740;BME280;4909;42.680;26.324;2024-01-06T02:58:21;98315.44;;;8.96;84.49
9740;BME280;4909;42.680;26.324;2024-01-06T03:00:48;98389.91;;;9.49;84.44
9740;BME280;4909;42.680;26.324;2024-01-06T03:03:15;98302.34;;;8.73;85.17
9740;BME280;4909;42.680;26.324;2024-01-06T03:05:43;98388.97;;;9.30;84.97
9740;BME280;4909;42.680;26.324;2024-01-06T03:08:14;98447.78;;;9.79;84.32
9740;BME280;4909;42.680;26.324;2024-01-06T03:10:42;98307.84;;;8.68;85.54
9740;BME280;4909;42.680;26.324;2024-01-06T03:13:10;98378.41;;;9.10;85.84
9740;BME280;4909;42.680;26.324;2024-01-06T03:15:38;98273.13;;;8.56;84.89
9740;BME280;4909;42.680;26.324;2024-01-06T03:18:06;98398.19;;;9.22;85.84
9740;BME280;4909;42.680;26.324;2024-01-06T03:20:34;98432.13;;;9.34;87.10
9740;BME280;4909;42.680;26.324;2024-01-06T03:23:01;98266.25;;;8.30;87.13
9740;BME280;4909;42.680;26.324;2024-01-06T03:25:28;98353.94;;;9.05;86.57
9740;BME280;4909;42.680;26.324;2024-01-06T03:27:55;98297.78;;;8.77;85.86
9740;BME280;4909;42.680;26.324;2024-01-06T03:30:23;98338.56;;;8.93;86.49
9740;BME280;4909;42.680;26.324;2024-01-06T03:32:51;98466.41;;;9.77;86.03
9740;BME280;4909;42.680;26.324;2024-01-06T03:35:18;98351.47;;;9.00;86.48
9740;BME280;4909;42.680;26.324;2024-01-06T03:37:45;98479.78;;;9.54;86.74
9740;BME280;4909;42.680;26.324;2024-01-06T03:40:13;98334.25;;;8.70;86.79
9740;BME280;4909;42.680;26.324;2024-01-06T03:42:40;98485.94;;;9.54;86.88
9740;BME280;4909;42.680;26.324;2024-01-06T03:45:08;98481.84;;;9.47;87.97
9740;BME280;4909;42.680;26.324;2024-01-06T03:47:35;98369.03;;;8.81;87.68
9740;BME280;4909;42.680;26.324;2024-01-06T03:50:04;98325.75;;;8.62;87.15
9740;BME280;4909;42.680;26.324;2024-01-06T03:52:31;98398.16;;;9.01;87.01
9740;BME280;4909;42.680;26.324;2024-01-06T03:54:58;98420.88;;;9.07;88.10
9740;BME280;4909;42.680;26.324;2024-01-06T03:57:26;98400.47;;;8.89;88.47
9740;BME280;4909;42.680;26.324;2024-01-06T03:59:53;98299.38;;;8.39;87.51
9740;BME280;4909;42.680;26.324;2024-01-06T04:02:20;98377.38;;;8.92;87.78
9740;BME280;4909;42.680;26.324;2024-01-06T04:04:47;98477.31;;;9.49;86.99
9740;BME280;4909;42.680;26.324;2024-01-06T04:07:16;98486.53;;;9.41;88.13
9740;BME280;4909;42.680;26.324;2024-01-06T04:09:43;98363.81;;;8.80;87.62
9740;BME280;4909;42.680;26.324;2024-01-06T04:12:10;98483.09;;;9.39;88.25
9740;BME280;4909;42.680;26.324;2024-01-06T04:14:38;98478.47;;;9.44;88.14
9740;BME280;4909;42.680;26.324;2024-01-06T04:17:05;98365.53;;;8.81;88.16
9740;BME280;4909;42.680;26.324;2024-01-06T04:19:32;98443.63;;;9.33;88.24
9740;BME280;4909;42.680;26.324;2024-01-06T04:22:00;98295.81;;;8.40;88.10
9740;BME280;4909;42.680;26.324;2024-01-06T04:24:28;98292.91;;;8.24;89.17
9740;BME280;4909;42.680;26.324;2024-01-06T04:26:56;98367.72;;;8.71;88.81
9740;BME280;4909;42.680;26.324;2024-01-06T04:29:23;98469.78;;;9.40;88.55
9740;BME280;4909;42.680;26.324;2024-01-06T04:31:50;98269.28;;;8.19;88.26
9740;BME280;4909;42.680;26.324;2024-01-06T04:34:17;98394.31;;;9.10;88.07
9740;BME280;4909;42.680;26.324;2024-01-06T04:36:44;98210.41;;;7.74;89.32
9740;BME280;4909;42.680;26.324;2024-01-06T04:39:12;98404.84;;;8.68;89.67
9740;BME280;4909;42.680;26.324;2024-01-06T04:41:41;98357.06;;;8.51;89.26
9740;BME280;4909;42.680;26.324;2024-01-06T04:44:08;98266.59;;;7.99;90.63
9740;BME280;4909;42.680;26.324;2024-01-06T04:46:35;98473.34;;;9.39;89.62
9740;BME280;4909;42.680;26.324;2024-01-06T04:49:03;98406.41;;;8.95;89.26
9740;BME280;4909;42.680;26.324;2024-01-06T04:51:30;98412.94;;;8.65;90.29
9740;BME280;4909;42.680;26.324;2024-01-06T04:53:57;98472.66;;;9.14;91.14
9740;BME280;4909;42.680;26.324;2024-01-06T04:56:25;98379.22;;;8.70;90.12
9740;BME280;4909;42.680;26.324;2024-01-06T04:58:53;98335.25;;;8.46;89.33
9740;BME280;4909;42.680;26.324;2024-01-06T05:01:21;98330.25;;;8.38;89.83
9740;BME280;4909;42.680;26.324;2024-01-06T05:03:48;98276.06;;;8.05;89.63
9740;BME280;4909;42.680;26.324;2024-01-06T05:06:15;98295.38;;;8.07;90.45
9740;BME280;4909;42.680;26.324;2024-01-06T05:08:42;98341.09;;;8.32;91.04
9740;BME280;4909;42.680;26.324;2024-01-06T05:11:12;98306.44;;;8.16;90.65
9740;BME280;4909;42.680;26.324;2024-01-06T05:13:39;98377.31;;;8.28;91.57
9740;BME280;4909;42.680;26.324;2024-01-06T05:16:08;98374.34;;;8.14;92.84
9740;BME280;4909;42.680;26.324;2024-01-06T05:18:36;98386.78;;;8.36;91.89
9740;BME280;4909;42.680;26.324;2024-01-06T05:21:03;98363.00;;;8.12;92.20
9740;BME280;4909;42.680;26.324;2024-01-06T05:23:31;98385.00;;;8.36;92.00
9740;BME280;4909;42.680;26.324;2024-01-06T05:25:58;98452.38;;;8.71;92.25
9740;BME280;4909;42.680;26.324;2024-01-06T05:28:25;98438.03;;;8.55;92.70
9740;BME280;4909;42.680;26.324;2024-01-06T05:30:52;98376.22;;;8.36;91.86
9740;BME280;4909;42.680;26.324;2024-01-06T05:33:21;98497.13;;;8.99;92.57
9740;BME280;4909;42.680;26.324;2024-01-06T05:35:49;98373.81;;;8.28;93.36
9740;BME280;4909;42.680;26.324;2024-01-06T05:38:19;98347.72;;;7.97;94.77
9740;BME280;4909;42.680;26.324;2024-01-06T05:40:46;98490.44;;;8.67;95.57
9740;BME280;4909;42.680;26.324;2024-01-06T05:43:14;98415.91;;;8.34;95.82
9740;BME280;4909;42.680;26.324;2024-01-06T05:45:41;98351.75;;;8.07;94.93
9740;BME280;4909;42.680;26.324;2024-01-06T05:48:09;98389.44;;;8.36;95.70
9740;BME280;4909;42.680;26.324;2024-01-06T05:50:38;98370.00;;;8.37;95.08
9740;BME280;4909;42.680;26.324;2024-01-06T05:53:06;98477.78;;;9.19;94.46
9740;BME280;4909;42.680;26.324;2024-01-06T05:55:33;98478.16;;;9.30;93.39
9740;BME280;4909;42.680;26.324;2024-01-06T05:58:01;98349.19;;;8.49;93.39
9740;BME280;4909;42.680;26.324;2024-01-06T06:00:52;98481.19;;;9.42;93.04
9740;BME280;4909;42.680;26.324;2024-01-06T06:04:17;98480.31;;;9.42;93.58
9740;BME280;4909;42.680;26.324;2024-01-06T06:06:52;98389.75;;;8.92;93.26
9740;BME280;4909;42.680;26.324;2024-01-06T06:09:20;98352.53;;;8.54;94.10
9740;BME280;4909;42.680;26.324;2024-01-06T06:14:51;98379.13;;;9.13;92.46
9740;BME280;4909;42.680;26.324;2024-01-06T06:17:19;98476.81;;;9.82;92.20
9740;BME280;4909;42.680;26.324;2024-01-06T06:19:46;98409.50;;;9.45;91.63
9740;BME280;4909;42.680;26.324;2024-01-06T06:22:14;98390.09;;;9.65;91.37
9740;BME280;4909;42.680;26.324;2024-01-06T06:24:42;98386.59;;;9.83;89.96
9740;BME280;4909;42.680;26.324;2024-01-06T06:27:09;98449.22;;;10.06;89.39
9740;BME280;4909;42.680;26.324;2024-01-06T06:29:36;98491.28;;;10.34;89.68
9740;BME280;4909;42.680;26.324;2024-01-06T06:32:04;98406.47;;;9.93;89.83
9740;BME280;4909;42.680;26.324;2024-01-06T06:34:31;98381.47;;;9.99;88.89
9740;BME280;4909;42.680;26.324;2024-01-06T06:36:58;98479.09;;;10.67;87.65
9740;BME280;4909;42.680;26.324;2024-01-06T06:39:27;98374.81;;;9.90;88.46
9740;BME280;4909;42.680;26.324;2024-01-06T06:41:55;98447.59;;;10.22;88.93
9740;BME280;4909;42.680;26.324;2024-01-06T06:44:22;98361.72;;;9.87;90.58
9740;BME280;4909;42.680;26.324;2024-01-06T06:46:50;98280.59;;;10.21;87.75
9740;BME280;4909;42.680;26.324;2024-01-06T06:49:18;98474.44;;;11.79;83.39
9740;BME280;4909;42.680;26.324;2024-01-06T06:51:45;98385.88;;;11.94;80.97
9740;BME280;4909;42.680;26.324;2024-01-06T06:54:14;98380.66;;;12.08;79.07
9740;BME280;4909;42.680;26.324;2024-01-06T06:56:42;98464.00;;;12.73;77.81
9740;BME280;4909;42.680;26.324;2024-01-06T06:59:10;98462.94;;;12.59;79.08
9740;BME280;4909;42.680;26.324;2024-01-06T07:01:37;98383.75;;;12.00;79.13
9740;BME280;4909;42.680;26.324;2024-01-06T07:04:05;98474.81;;;12.70;80.03
9740;BME280;4909;42.680;26.324;2024-01-06T07:06:32;98356.63;;;12.25;78.59
9740;BME280;4909;42.680;26.324;2024-01-06T07:08:59;98420.34;;;12.59;78.59
9740;BME280;4909;42.680;26.324;2024-01-06T07:11:26;98444.91;;;12.80;77.91
9740;BME280;4909;42.680;26.324;2024-01-06T07:13:55;98295.34;;;11.80;78.29
9740;BME280;4909;42.680;26.324;2024-01-06T07:16:22;98385.81;;;11.95;80.58
9740;BME280;4909;42.680;26.324;2024-01-06T07:18:49;98474.13;;;12.17;82.30
9740;BME280;4909;42.680;26.324;2024-01-06T07:21:16;98362.47;;;11.50;82.47
9740;BME280;4909;42.680;26.324;2024-01-06T07:23:43;98402.72;;;11.43;84.27
9740;BME280;4909;42.680;26.324;2024-01-06T07:26:11;98443.69;;;11.73;85.49
9740;BME280;4909;42.680;26.324;2024-01-06T07:28:38;98443.28;;;11.63;86.34
9740;BME280;4909;42.680;26.324;2024-01-06T07:31:06;98454.34;;;11.73;86.67
9740;BME280;4909;42.680;26.324;2024-01-06T07:33:34;98459.25;;;11.63;88.66
9740;BME280;4909;42.680;26.324;2024-01-06T07:36:01;98456.56;;;11.63;88.63
9740;BME280;4909;42.680;26.324;2024-01-06T07:38:28;98398.53;;;11.21;89.86
9740;BME280;4909;42.680;26.324;2024-01-06T07:40:56;98449.56;;;11.80;88.71
9740;BME280;4909;42.680;26.324;2024-01-06T07:43:44;98356.66;;;11.26;88.90
9740;BME280;4909;42.680;26.324;2024-01-06T07:46:18;98326.56;;;11.09;89.49
9740;BME280;4909;42.680;26.324;2024-01-06T07:48:45;98341.09;;;11.36;89.38
9740;BME280;4909;42.680;26.324;2024-01-06T07:51:16;98357.09;;;11.52;88.64
9740;BME280;4909;42.680;26.324;2024-01-06T07:53:44;98434.47;;;12.13;89.04
9740;BME280;4909;42.680;26.324;2024-01-06T07:56:11;98366.56;;;11.90;88.06
9740;BME280;4909;42.680;26.324;2024-01-06T07:58:38;98415.41;;;12.05;88.58
9740;BME280;4909;42.680;26.324;2024-01-06T08:01:06;98253.84;;;11.11;88.85
9740;BME280;4909;42.680;26.324;2024-01-06T08:03:34;98351.94;;;11.82;88.47
9740;BME280;4909;42.680;26.324;2024-01-06T08:06:02;98316.13;;;11.71;87.27
9740;BME280;4909;42.680;26.324;2024-01-06T08:08:30;98297.34;;;11.59;88.19
9740;BME280;4909;42.680;26.324;2024-01-06T08:10:57;98351.38;;;11.92;87.68
9740;BME280;4909;42.680;26.324;2024-01-06T08:13:24;98317.59;;;11.94;86.83
9740;BME280;4909;42.680;26.324;2024-01-06T08:15:52;98378.00;;;12.39;86.66
9740;BME280;4909;42.680;26.324;2024-01-06T08:18:25;98357.41;;;12.27;87.26
9740;BME280;4909;42.680;26.324;2024-01-06T08:20:56;98318.03;;;12.18;86.82
9740;BME280;4909;42.680;26.324;2024-01-06T08:23:26;98420.88;;;12.50;88.37
9740;BME280;4909;42.680;26.324;2024-01-06T08:25:53;98316.13;;;11.89;88.97
9740;BME280;4909;42.680;26.324;2024-01-06T08:28:21;98248.81;;;11.55;89.23
9740;BME280;4909;42.680;26.324;2024-01-06T08:30:48;98372.97;;;12.19;90.24
9740;BME280;4909;42.680;26.324;2024-01-06T08:33:16;98337.31;;;11.90;90.88
9740;BME280;4909;42.680;26.324;2024-01-06T08:35:44;98415.38;;;12.38;92.17
9740;BME280;4909;42.680;26.324;2024-01-06T08:38:12;98250.66;;;11.38;92.95
9740;BME280;4909;42.680;26.324;2024-01-06T08:40:40;98274.28;;;11.59;93.51
9740;BME280;4909;42.680;26.324;2024-01-06T08:43:07;98286.88;;;11.71;93.64
9740;BME280;4909;42.680;26.324;2024-01-06T08:45:35;98311.75;;;11.88;94.11
9740;BME280;4909;42.680;26.324;2024-01-06T08:48:02;98340.84;;;12.22;94.29
9740;BME280;4909;42.680;26.324;2024-01-06T08:50:29;98266.72;;;12.00;93.31
9740;BME280;4909;42.680;26.324;2024-01-06T08:52:57;98274.00;;;12.12;93.15
9740;BME280;4909;42.680;26.324;2024-01-06T08:55:25;98218.66;;;12.03;91.86
9740;BME280;4909;42.680;26.324;2024-01-06T08:57:53;98223.53;;;12.56;89.89
9740;BME280;4909;42.680;26.324;2024-01-06T09:00:20;98265.69;;;13.08;87.48
9740;BME280;4909;42.680;26.324;2024-01-06T09:02:47;98395.31;;;14.11;85.28
9740;BME280;4909;42.680;26.324;2024-01-06T09:05:14;98387.31;;;14.11;85.74
9740;BME280;4909;42.680;26.324;2024-01-06T09:07:42;98237.97;;;13.69;84.78
9740;BME280;4909;42.680;26.324;2024-01-06T09:10:10;98233.59;;;14.35;80.75
9740;BME280;4909;42.680;26.324;2024-01-06T09:12:39;98264.25;;;15.21;77.45
9740;BME280;4909;42.680;26.324;2024-01-06T09:15:06;98344.53;;;16.10;74.76
9740;BME280;4909;42.680;26.324;2024-01-06T09:17:33;98379.69;;;16.42;72.71
9740;BME280;4909;42.680;26.324;2024-01-06T09:20:01;98345.06;;;16.15;72.43
9740;BME280;4909;42.680;26.324;2024-01-06T09:22:28;98247.25;;;15.48;72.73
9740;BME280;4909;42.680;26.324;2024-01-06T09:24:56;98166.66;;;15.03;72.49
9740;BME280;4909;42.680;26.324;2024-01-06T09:27:23;98219.03;;;15.31;73.25
9740;BME280;4909;42.680;26.324;2024-01-06T09:29:52;98254.94;;;15.40;74.77
9740;BME280;4909;42.680;26.324;2024-01-06T09:32:19;98348.25;;;16.07;75.24
9740;BME280;4909;42.680;26.324;2024-01-06T09:34:48;98371.41;;;16.21;75.54
9740;BME280;4909;42.680;26.324;2024-01-06T09:37:18;98307.41;;;15.80;76.24
9740;BME280;4909;42.680;26.324;2024-01-06T09:39:45;98266.41;;;15.42;77.76
9740;BME280;4909;42.680;26.324;2024-01-06T09:42:13;98256.78;;;15.27;78.70
9740;BME280;4909;42.680;26.324;2024-01-06T09:44:40;98293.78;;;15.33;79.66
9740;BME280;4909;42.680;26.324;2024-01-06T09:47:11;98316.28;;;15.55;80.17
9740;BME280;4909;42.680;26.324;2024-01-06T09:49:39;98318.72;;;15.46;80.34
9740;BME280;4909;42.680;26.324;2024-01-06T09:52:13;98350.09;;;15.56;81.62
9740;BME280;4909;42.680;26.324;2024-01-06T09:54:48;98320.31;;;15.36;82.76
9740;BME280;4909;42.680;26.324;2024-01-06T09:57:17;98341.13;;;15.57;82.40
9740;BME280;4909;42.680;26.324;2024-01-06T09:59:44;98221.38;;;14.98;82.08
9740;BME280;4909;42.680;26.324;2024-01-06T10:02:15;98327.34;;;15.63;82.20
9740;BME280;4909;42.680;26.324;2024-01-06T10:04:43;98278.47;;;15.22;83.26
9740;BME280;4909;42.680;26.324;2024-01-06T10:07:10;98232.78;;;14.87;83.72
9740;BME280;4909;42.680;26.324;2024-01-06T10:09:40;98321.25;;;15.35;84.69
9740;BME280;4909;42.680;26.324;2024-01-06T10:12:08;98202.94;;;14.68;84.69
9740;BME280;4909;42.680;26.324;2024-01-06T10:14:35;98184.31;;;14.54;85.39
9740;BME280;4909;42.680;26.324;2024-01-06T10:17:05;98217.63;;;14.88;85.40
9740;BME280;4909;42.680;26.324;2024-01-06T10:19:34;98153.38;;;14.64;84.73
9740;BME280;4909;42.680;26.324;2024-01-06T10:22:03;98119.19;;;14.56;83.91
9740;BME280;4909;42.680;26.324;2024-01-06T10:24:30;98251.66;;;15.23;84.69
9740;BME280;4909;42.680;26.324;2024-01-06T10:26:57;98297.72;;;15.40;84.86
9740;BME280;4909;42.680;26.324;2024-01-06T10:29:25;98209.50;;;14.89;85.25
9740;BME280;4909;42.680;26.324;2024-01-06T10:31:54;98161.69;;;14.47;86.10
9740;BME280;4909;42.680;26.324;2024-01-06T10:34:21;98178.66;;;14.58;87.29
9740;BME280;4909;42.680;26.324;2024-01-06T10:36:50;98249.19;;;15.08;87.12
9740;BME280;4909;42.680;26.324;2024-01-06T10:39:18;98184.13;;;14.57;87.29
9740;BME280;4909;42.680;26.324;2024-01-06T10:41:48;98240.47;;;14.66;88.74
9740;BME280;4909;42.680;26.324;2024-01-06T10:44:16;98163.84;;;14.01;90.75
9740;BME280;4909;42.680;26.324;2024-01-06T10:46:44;98183.31;;;14.15;90.91
9740;BME280;4909;42.680;26.324;2024-01-06T10:49:11;98149.41;;;13.90;91.79
9740;BME280;4909;42.680;26.324;2024-01-06T10:51:39;98241.25;;;14.54;91.37
9740;BME280;4909;42.680;26.324;2024-01-06T10:54:09;98218.72;;;14.46;91.34
9740;BME280;4909;42.680;26.324;2024-01-06T10:56:39;98235.00;;;14.68;90.92
9740;BME280;4909;42.680;26.324;2024-01-06T10:59:07;98088.75;;;13.80;90.76
9740;BME280;4909;42.680;26.324;2024-01-06T11:01:35;98111.97;;;14.05;90.36
9740;BME280;4909;42.680;26.324;2024-01-06T11:04:04;98227.66;;;14.97;89.41
9740;BME280;4909;42.680;26.324;2024-01-06T11:06:33;98086.91;;;13.68;91.04
9740;BME280;4909;42.680;26.324;2024-01-06T11:09:06;98186.22;;;14.39;90.97
9740;BME280;4909;42.680;26.324;2024-01-06T11:11:35;98082.81;;;13.89;90.38
9740;BME280;4909;42.680;26.324;2024-01-06T11:14:19;98235.25;;;14.90;89.83
9740;BME280;4909;42.680;26.324;2024-01-06T11:16:47;98146.75;;;14.57;89.29
9740;BME280;4909;42.680;26.324;2024-01-06T11:19:44;98229.28;;;15.12;88.75
9740;BME280;4909;42.680;26.324;2024-01-06T11:22:20;98228.31;;;15.26;88.00
9740;BME280;4909;42.680;26.324;2024-01-06T11:24:49;98118.66;;;14.64;87.83
9740;BME280;4909;42.680;26.324;2024-01-06T11:27:22;98136.06;;;14.69;88.38
9740;BME280;4909;42.680;26.324;2024-01-06T11:29:51;98225.66;;;15.26;87.67
9740;BME280;4909;42.680;26.324;2024-01-06T11:32:20;98165.56;;;14.93;87.19
9740;BME280;4909;42.680;26.324;2024-01-06T11:34:52;98193.59;;;15.13;87.99
9740;BME280;4909;42.680;26.324;2024-01-06T11:37:24;98201.91;;;15.34;88.10
9740;BME280;4909;42.680;26.324;2024-01-06T11:39:51;98186.94;;;15.31;87.52
9740;BME280;4909;42.680;26.324;2024-01-06T11:42:21;98131.59;;;14.95;86.83
9740;BME280;4909;42.680;26.324;2024-01-06T11:44:53;98159.38;;;15.18;86.31
9740;BME280;4909;42.680;26.324;2024-01-06T11:47:32;98105.50;;;14.99;86.03
9740;BME280;4909;42.680;26.324;2024-01-06T11:50:00;98152.06;;;15.33;85.68
9740;BME280;4909;42.680;26.324;2024-01-06T11:52:30;98149.63;;;15.30;85.40
9740;BME280;4909;42.680;26.324;2024-01-06T11:54:58;98117.66;;;15.15;85.77
9740;BME280;4909;42.680;26.324;2024-01-06T11:57:27;98159.78;;;15.12;86.95
9740;BME280;4909;42.680;26.324;2024-01-06T11:59:55;98101.56;;;14.79;87.13
9740;BME280;4909;42.680;26.324;2024-01-06T12:02:22;98114.25;;;15.01;86.84
9740;BME280;4909;42.680;26.324;2024-01-06T12:04:50;98123.13;;;15.14;86.91
9740;BME280;4909;42.680;26.324;2024-01-06T12:07:18;98120.97;;;15.06;86.89
9740;BME280;4909;42.680;26.324;2024-01-06T12:09:48;98174.84;;;15.38;87.32
9740;BME280;4909;42.680;26.324;2024-01-06T12:12:18;97991.75;;;14.46;86.57
9740;BME280;4909;42.680;26.324;2024-01-06T12:14:47;98053.00;;;14.98;85.79
9740;BME280;4909;42.680;26.324;2024-01-06T12:17:16;98030.91;;;14.83;86.16
9740;BME280;4909;42.680;26.324;2024-01-06T12:19:43;98117.66;;;15.28;86.35
9740;BME280;4909;42.680;26.324;2024-01-06T12:22:12;98119.78;;;15.23;87.09
9740;BME280;4909;42.680;26.324;2024-01-06T12:24:40;98042.34;;;14.72;87.95
9740;BME280;4909;42.680;26.324;2024-01-06T12:27:08;98022.69;;;14.73;87.60
9740;BME280;4909;42.680;26.324;2024-01-06T12:29:40;98101.63;;;15.15;87.52
9740;BME280;4909;42.680;26.324;2024-01-06T12:32:14;97996.31;;;14.69;86.75
9740;BME280;4909;42.680;26.324;2024-01-06T12:34:44;98048.63;;;14.97;86.80
9740;BME280;4909;42.680;26.324;2024-01-06T12:37:19;98028.53;;;14.91;87.38
9740;BME280;4909;42.680;26.324;2024-01-06T12:39:50;98160.38;;;15.66;87.24
9740;BME280;4909;42.680;26.324;2024-01-06T12:42:17;98064.03;;;14.93;88.27
9740;BME280;4909;42.680;26.324;2024-01-06T12:44:47;98162.97;;;15.55;88.70
9740;BME280;4909;42.680;26.324;2024-01-06T12:47:16;98049.91;;;14.91;88.26
9740;BME280;4909;42.680;26.324;2024-01-06T12:49:43;98065.66;;;14.96;88.15
9740;BME280;4909;42.680;26.324;2024-01-06T12:52:11;98077.69;;;15.14;88.19
9740;BME280;4909;42.680;26.324;2024-01-06T12:54:39;98125.53;;;15.55;87.78
9740;BME280;4909;42.680;26.324;2024-01-06T12:57:07;98159.19;;;15.70;87.75
9740;BME280;4909;42.680;26.324;2024-01-06T12:59:35;98084.09;;;15.24;87.95
9740;BME280;4909;42.680;26.324;2024-01-06T13:02:02;98147.00;;;15.66;88.33
9740;BME280;4909;42.680;26.324;2024-01-06T13:04:31;97980.28;;;14.69;88.25
9740;BME280;4909;42.680;26.324;2024-01-06T13:06:58;98063.03;;;15.19;87.55
9740;BME280;4909;42.680;26.324;2024-01-06T13:09:26;98115.25;;;15.49;87.74
9740;BME280;4909;42.680;26.324;2024-01-06T13:11:53;98041.25;;;15.00;88.27
9740;BME280;4909;42.680;26.324;2024-01-06T13:14:21;98087.81;;;15.21;89.37
9740;BME280;4909;42.680;26.324;2024-01-06T13:16:49;98144.16;;;15.56;88.92
9740;BME280;4909;42.680;26.324;2024-01-06T13:19:16;98138.03;;;15.54;88.75
9740;BME280;4909;42.680;26.324;2024-01-06T13:21:44;98159.53;;;15.65;88.88
9740;BME280;4909;42.680;26.324;2024-01-06T13:24:12;97993.97;;;14.64;88.98